Sunday, November 19, 2017, 8:46 PM EST
Back to Local

KCAR, Caribou Municipal Airport

Location: Caribou, ME, United States Lat: 46.867
Local Time: 8:46 PM EST ( 1:46 GMT) Lon: -68.017
Time Zone: US/Eastern Elev: 626 ft

Show me the last for .
Show Decoded

2017-11-19 20:05 METAR KCAR 200105Z AUTO 27015G21KT 10SM SCT011 OVC018 01/M02 A2914 RMK AO2
                 T00111017 =
2017-11-19 19:54 METAR KCAR 200054Z AUTO 26015G25KT 10SM BKN011 OVC020 01/M02 A2913 RMK AO2
                 RAE09UPB18E51SNB2357E07B30E31 SLP873 P0000 T00111017 =
2017-11-19 19:19 METAR KCAR 200019Z AUTO 25008G18KT 10SM UP BKN014 OVC021 02/M01 A2912 RMK AO2
                 RAE09UPB18SNB2357E07 PRESRR P0000 T00171006 =
2017-11-19 18:54 METAR KCAR 192354Z AUTO 25011KT 10SM -RA SCT014 SCT018 OVC025 02/00 A2909 RMK
                 AO2 SLP860 P0000 60023 I1000 I6000 T00220000 10061 20022 51056 =
2017-11-19 18:31 METAR KCAR 192331Z AUTO 26012G17KT 10SM -RA BKN015 BKN019 OVC024 03/01 A2908 RMK
                 AO2 P0000 T00280006 =
2017-11-19 18:21 METAR KCAR 192321Z AUTO 26014G20KT 10SM -RA BKN013 OVC021 03/01 A2907 =
2017-11-19 17:54 METAR KCAR 192254Z AUTO 27008G20KT 10SM -RA BKN022 OVC065 04/02 A2904 RMK AO2
                 RAB42 PRESRR SLP841 P0000 T00440017 =
2017-11-19 17:43 METAR KCAR 192243Z AUTO 26013G21KT 10SM -RA BKN020 OVC065 04/02 A2903 RMK AO2
                 RAB42 PRESRR P0000 T00440017 =
2017-11-19 17:08 METAR KCAR 192208Z AUTO 26009KT 10SM SCT023 OVC055 06/03 A2899 RMK AO2 T00560033
                 =
2017-11-19 16:54 METAR KCAR 192154Z AUTO 26010G18KT 10SM FEW014 BKN023 OVC050 05/04 A2898 RMK AO2
                 RAE2058 SLP821 P0000 T00500039 =
2017-11-19 15:54 METAR KCAR 192054Z AUTO 30005KT 10SM -RA FEW004 BKN028 OVC046 05/04 A2892 RMK
                 AO2 RAE20B29 SLP803 P0006 60023 T00500039 53003 =
2017-11-19 15:37 METAR KCAR 192037Z AUTO 29006G20KT 3SM -RA BR BKN004 BKN028 OVC075 05/04 A2892
                 RMK AO2 RAE20B29 CIG 002V006 P0005 T00500044 =
2017-11-19 15:33 METAR KCAR 192033Z AUTO 30007G22KT 2SM -RA BR BKN005 BKN026 OVC075 05/04 A2892
                 RMK AO2 VIS 1 1/4V5 RAE20B29 P0005 T00500039 =
2017-11-19 15:28 METAR KCAR 192028Z AUTO 30015G22KT 1 1/4SM BR BKN005 BKN060 OVC070 06/04 A2892
                 RMK AO2 RAE20 PRESRR P0005 T00560044 =
2017-11-19 15:22 METAR KCAR 192022Z AUTO 35004KT 1 3/4SM BR SCT005 BKN060 OVC075 06/04 A2890 RMK
                 AO2 RAE20 P0005 T00560044 =
2017-11-19 15:11 METAR KCAR 192011Z AUTO 01003KT 7SM -RA FEW009 BKN060 OVC075 06/05 A2890 RMK AO2
                 P0005 T00610050 =
2017-11-19 15:01 METAR KCAR 192001Z AUTO 02004KT 2SM RA BR FEW005 OVC060 06/04 A2890 RMK AO2
                 P0003 T00560044 =
2017-11-19 14:54 METAR KCAR 191954Z AUTO 02004KT 2SM RA BR SCT005 BKN014 OVC055 06/04 A2890 RMK
                 AO2 SLP796 P0008 T00560044 =
2017-11-19 14:50 METAR KCAR 191950Z AUTO 02003KT 2 1/2SM -RA BR BKN005 BKN014 OVC065 06/04 A2891
                 RMK AO2 P0007 =
2017-11-19 14:44 METAR KCAR 191944Z AUTO 05003KT 4SM -RA BR BKN006 OVC012 05/04 A2891 RMK AO2
                 P0007 T00500039 =
2017-11-19 14:33 METAR KCAR 191933Z AUTO 36004KT 3SM -RA BR OVC004 05/04 A2891 RMK AO2 P0006
                 T00500044 =
2017-11-19 14:30 METAR KCAR 191930Z AUTO 02004KT 1 3/4SM -RA BR OVC004 05/04 A2891 RMK AO2 P0006
                 T00500044 =
2017-11-19 13:54 METAR KCAR 191854Z AUTO 08006KT 1/4SM RA FG VV004 06/05 A2892 RMK AO2 PRESFR
                 SLP800 P0009 T00560050 =
2017-11-19 13:26 METAR KCAR 191826Z AUTO 09004KT 1/2SM RA FG VV004 06/04 A2895 RMK AO2 P0004
                 T00560044 =
2017-11-19 13:09 METAR KCAR 191809Z AUTO 09006KT 3/4SM -RA BR VV005 05/04 A2896 RMK AO2 P0003
                 T00500044 =
2017-11-19 12:54 METAR KCAR 191754Z AUTO 09006KT 3/4SM RA BR VV004 05/04 A2897 RMK AO2 SLP818
                 P0006 60042 T00500039 10050 20017 56052 =
2017-11-19 12:46 METAR KCAR 191746Z AUTO 10005KT 1 1/4SM -RA BR OVC004 05/04 A2898 RMK AO2 P0005
                 T00500039 =
2017-11-19 12:31 METAR KCAR 191731Z AUTO 11007KT 2 1/2SM -RA BR OVC004 05/04 A2900 RMK AO2 P0004
                 T00500039 =
2017-11-19 12:16 METAR KCAR 191716Z AUTO 10006KT 1 3/4SM RA BR OVC004 04/03 A2900 RMK AO2 P0002
                 T00440033 =
2017-11-19 11:54 METAR KCAR 191654Z AUTO 09007KT 5SM -RA BR OVC004 04/03 A2901 RMK AO2 SLP832
                 P0007 T00440033 =
2017-11-19 10:54 METAR KCAR 191554Z AUTO 11006KT 4SM -RA BR OVC003 03/03 A2907 RMK AO2 RAE22B47
                 SLP854 P0001 T00330028 =
2017-11-19 09:54 METAR KCAR 191454Z AUTO 10006KT 3SM -RA BR OVC004 03/02 A2913 RMK AO2 SLP873
                 P0006 60028 T00330022 58046 =
2017-11-19 08:54 METAR KCAR 191354Z AUTO 08008KT 6SM -RA BR OVC004 03/02 A2918 RMK AO2 SLP890
                 P0010 T00280017 =
2017-11-19 07:54 METAR KCAR 191254Z AUTO 09006KT 4SM RA BR OVC004 02/01 A2923 RMK AO2 SLP909
                 P0012 T00220011 =
2017-11-19 06:54 METAR KCAR 191154Z AUTO 10009KT 4SM -RA BR OVC003 02/01 A2927 RMK AO2 SLP920
                 P0004 60012 70012 I1000 I6008 T00170006 10017 21011 58030 =
2017-11-19 05:54 METAR KCAR 191054Z AUTO 10008KT 5SM -RA BR OVC003 01/00 A2931 RMK AO2
                 RAB18FZRAE18 SLP934 P0005 I1001 T00110000 =
2017-11-19 05:18 METAR KCAR 191018Z AUTO 11007KT 5SM -RA BR BKN004 OVC008 01/M01 A2934 RMK AO2
                 RAB18FZRAE18 P0001 I1001 T00061006 =
2017-11-19 04:54 METAR KCAR 190954Z AUTO 10009KT 5SM -FZRA BR OVC008 01/M01 A2936 RMK AO2
                 RAB05E10 CIG 004V010 SLP950 P0001 I1005 T00061006 =
2017-11-19 04:51 METAR KCAR 190951Z AUTO 10010KT 4SM -FZRA BR OVC008 01/M01 A2936 RMK AO2
                 RAB05E10 CIG 004V011 PRESFR P0001 I1005 =
2017-11-19 03:54 METAR KCAR 190854Z AUTO 09010KT 10SM -FZRA OVC012 01/M02 A2941 RMK AO2
                 UPB28E33FZRAE28B33 SLP967 P0001 60002 I1001 I3002 T00061017 58047 =
2017-11-19 03:39 METAR KCAR 190839Z AUTO 09006KT 10SM -FZRA BKN012 OVC018 00/M02 A2942 RMK AO2
                 UPB28E33FZRAE28B33 P0001 I1001 T00001017 =
2017-11-19 03:32 METAR KCAR 190832Z AUTO 08007KT 10SM UP BKN013 OVC018 00/M02 A2942 RMK AO2
                 UPB28FZRAE28 P0001 I1001 T00001022 =
2017-11-19 03:04 METAR KCAR 190804Z AUTO 07007KT 9SM -FZRA OVC015 M01/M02 A2945 RMK AO2 P0000
                 I1001 T10061022 =
2017-11-19 02:54 METAR KCAR 190754Z AUTO 07006KT 9SM -FZRA BKN012 OVC018 M01/M03 A2946 RMK AO2
                 UPB19E25FZRAB25 SLP986 P0001 I1001 T10061028 =
2017-11-19 02:31 METAR KCAR 190731Z AUTO 08005KT 9SM -FZRA OVC012 M01/M03 A2948 RMK AO2
                 UPB19E25FZRAB25 P0000 I1001 T10111033 =
2017-11-19 02:01 METAR KCAR 190701Z AUTO 09005KT 7SM BKN013 OVC022 M01/M04 A2951 RMK AO2
                 T10111044 =
2017-11-19 01:54 METAR KCAR 190654Z AUTO 09005KT 10SM BKN015 OVC022 M01/M04 A2952 RMK AO2 SLP007
                 T10111044 =
2017-11-19 00:54 METAR KCAR 190554Z AUTO 09004KT 10SM OVC022 M01/M05 A2955 RMK AO2 SLP017
                 T10111050 11011 21028 58034 =
2017-11-19 00:37 METAR KCAR 190537Z AUTO 09004KT 10SM BKN022 OVC030 M02/M05 A2955 RMK AO2
                 T10171050 =
2017-11-18 23:54 METAR KCAR 190454Z AUTO 10004KT 10SM OVC037 M02/M06 A2959 RMK AO2 SLP030
                 T10171056 410111072 =
2017-11-18 22:54 METAR KCAR 190354Z AUTO 11006KT 10SM OVC090 M02/M06 A2962 RMK AO2 SLP042
                 T10221056 =
2017-11-18 21:54 METAR KCAR 190254Z AUTO 10007KT 10SM BKN075 OVC090 M02/M06 A2965 RMK AO2 SLP052
                 T10221056 58025 =
2017-11-18 20:54 METAR KCAR 190154Z AUTO 10005KT 10SM OVC090 M02/M06 A2967 RMK AO2 SLP060
                 T10221061 =

Support USWX by starting your Amazon purchase here.